Time;durP1;ratioP1;P1;durP2;ratioP2;P2;SDS_P1;SDS_P2;PMS_P1;PMS_P2;Temp;Humidity;BMP_temperature;BMP_pressure;BME280_temperature;BME280_humidity;BME280_pressure;Samples;Min_cycle;Max_cycle;Signal;HPM_P1;HPM_P2
2022/06/14 00:05:05;;;;;;;8.35;3.13;;;;;;;9.90;87.42;102384.28;10542227;28;20559;-76
2022/06/14 00:10:07;;;;;;;8.02;3.72;;;;;;;9.98;86.67;102392.38;10545029;28;20058;-76
2022/06/14 00:15:10;;;;;;;7.18;3.30;;;;;;;9.86;86.88;102386.59;10540224;28;20047;-76
2022/06/14 00:20:11;;;;;;;8.13;3.67;;;;;;;9.76;86.41;102386.13;10533044;28;20079;-76
2022/06/14 00:25:24;;;;;;;7.90;3.25;;;;;;;9.70;85.04;102380.66;10541290;28;20036;-77
2022/06/14 00:30:26;;;;;;;6.82;3.45;;;;;;;9.63;86.53;102396.56;10535531;28;20040;-76
2022/06/14 00:35:28;;;;;;;7.32;3.60;;;;;;;9.47;86.34;102397.41;10546450;28;20445;-75
2022/06/14 00:40:35;;;;;;;8.15;3.63;;;;;;;9.46;85.93;102390.47;10539885;28;20391;-75
2022/06/14 00:45:36;;;;;;;10.10;4.30;;;;;;;9.43;87.70;102391.19;10533138;28;20039;-76
2022/06/14 00:50:47;;;;;;;6.63;3.60;;;;;;;9.41;88.44;102400.53;10505575;28;20044;-76
2022/06/14 00:56:02;;;;;;;8.40;3.95;;;;;;;9.32;86.77;102406.06;10529454;28;20044;-75
2022/06/14 01:01:13;;;;;;;6.25;3.63;;;;;;;9.15;86.98;102394.84;10544005;28;20050;-77
2022/06/14 01:06:24;;;;;;;8.93;3.63;;;;;;;9.11;87.48;102410.00;10518183;28;20055;-74
2022/06/14 01:11:36;;;;;;;7.68;3.80;;;;;;;9.02;86.67;102400.09;10521882;28;20048;-77
2022/06/14 01:16:38;;;;;;;8.73;3.70;;;;;;;9.00;87.07;102409.41;10531991;28;20036;-76
2022/06/14 01:21:39;;;;;;;11.35;4.22;;;;;;;9.04;87.39;102396.81;10521667;28;20044;-76
2022/06/14 01:26:42;;;;;;;6.43;3.33;;;;;;;8.95;87.63;102395.41;10545817;28;20433;-77
2022/06/14 01:31:45;;;;;;;11.13;3.70;;;;;;;8.96;86.75;102389.47;10540702;28;20052;-76
2022/06/14 01:36:47;;;;;;;9.88;3.72;;;;;;;8.79;87.39;102388.50;10517302;28;20040;-76
2022/06/14 01:42:07;;;;;;;6.47;3.88;;;;;;;8.80;86.58;102380.91;10542215;28;20101;-76
2022/06/14 01:47:48;;;;;;;9.25;4.18;;;;;;;8.64;87.82;102378.25;10519970;28;20105;-75
2022/06/14 01:53:15;;;;;;;6.97;3.65;;;;;;;8.39;90.87;102374.19;10497461;28;20059;-76
2022/06/14 01:58:26;;;;;;;9.13;4.03;;;;;;;8.73;89.53;102373.63;10541758;28;20055;-75
2022/06/14 02:09:11;;;;;;;5.97;3.70;;;;;;;8.64;88.17;102373.09;10545994;28;20071;-76
2022/06/14 02:14:37;;;;;;;7.15;4.10;;;;;;;8.63;88.46;102373.91;10526244;28;20082;-77
2022/06/14 02:19:45;;;;;;;8.60;4.30;;;;;;;8.59;89.10;102374.53;10519120;28;20059;-76
2022/06/14 02:24:53;;;;;;;7.13;3.95;;;;;;;8.53;89.14;102375.91;10524274;28;20105;-75
2022/06/14 02:29:59;;;;;;;7.55;3.83;;;;;;;8.42;89.03;102371.81;10542911;28;20044;-77
2022/06/14 02:35:20;;;;;;;9.93;4.20;;;;;;;8.34;89.21;102363.66;10547472;28;20044;-76
2022/06/14 02:40:36;;;;;;;9.63;4.65;;;;;;;8.35;90.32;102375.72;10502910;28;20059;-76
2022/06/14 02:45:47;;;;;;;6.90;4.07;;;;;;;8.31;87.63;102373.78;10530421;28;20036;-76
2022/06/14 02:51:01;;;;;;;8.55;4.43;;;;;;;8.34;86.53;102367.91;10535617;28;20071;-76
2022/06/14 02:56:17;;;;;;;8.88;4.05;;;;;;;8.33;86.16;102361.00;10535766;28;20478;-77
2022/06/14 03:01:25;;;;;;;8.98;4.35;;;;;;;8.22;87.88;102358.72;10525759;28;20040;-75
2022/06/14 03:06:34;;;;;;;8.40;4.18;;;;;;;8.12;89.21;102356.38;10538123;28;20086;-75
2022/06/14 03:12:06;;;;;;;4.90;3.47;;;;;;;8.21;89.38;102354.38;10538065;28;20415;-76
2022/06/14 03:17:30;;;;;;;7.97;4.13;;;;;;;7.89;88.85;102355.91;10532491;28;20059;-75
2022/06/14 03:23:02;;;;;;;9.05;3.60;;;;;;;7.84;89.64;102359.88;10513775;28;20123;-75
2022/06/14 03:28:12;;;;;;;6.28;3.60;;;;;;;7.91;89.05;102367.16;10534115;28;20052;-76
2022/06/14 03:33:27;;;;;;;6.63;3.58;;;;;;;7.97;89.32;102365.75;10537055;28;20048;-76
2022/06/14 03:38:40;;;;;;;6.07;3.60;;;;;;;7.98;89.70;102352.13;10515428;28;20648;-75
2022/06/14 03:43:42;;;;;;;6.90;3.05;;;;;;;7.57;90.06;102349.69;10529956;28;20384;-76
2022/06/14 03:48:48;;;;;;;5.57;3.92;;;;;;;7.80;90.45;102360.47;10532966;28;20147;-76
2022/06/14 03:54:08;;;;;;;9.32;3.90;;;;;;;7.66;88.79;102354.50;10534539;28;20044;-77
2022/06/14 03:59:27;;;;;;;8.02;4.00;;;;;;;7.82;89.94;102364.03;10533106;28;20051;-75
2022/06/14 04:04:57;;;;;;;6.32;4.13;;;;;;;8.03;90.01;102361.88;10555264;28;20510;-77
2022/06/14 04:10:16;;;;;;;9.50;4.13;;;;;;;7.73;90.82;102360.88;10550123;28;20048;-77
2022/06/14 04:15:44;;;;;;;8.95;4.10;;;;;;;7.97;88.91;102356.34;10534367;28;20104;-75
2022/06/14 04:20:51;;;;;;;6.25;3.70;;;;;;;8.02;91.70;102359.19;10535220;28;20207;-75
2022/06/14 04:26:12;;;;;;;6.32;3.33;;;;;;;8.06;90.99;102366.28;10538861;28;20040;-75
2022/06/14 04:31:29;;;;;;;8.75;4.10;;;;;;;8.21;91.62;102372.34;10537577;28;20112;-74
2022/06/14 04:36:36;;;;;;;7.13;4.07;;;;;;;8.36;92.65;102362.06;10551969;28;20124;-74
2022/06/14 04:41:48;;;;;;;6.97;4.10;;;;;;;8.48;91.01;102361.94;10539735;28;20048;-75
2022/06/14 04:47:00;;;;;;;6.47;3.95;;;;;;;8.80;90.50;102360.34;10516378;28;20102;-75
2022/06/14 04:52:25;;;;;;;10.88;5.10;;;;;;;8.94;90.83;102368.81;10538558;28;20524;-75
2022/06/14 04:58:00;;;;;;;15.70;5.22;;;;;;;8.96;91.13;102381.75;10539668;28;20547;-75
2022/06/14 05:03:10;;;;;;;9.60;4.28;;;;;;;9.18;91.47;102383.84;10507113;28;20055;-74
2022/06/14 05:08:31;;;;;;;10.32;4.90;;;;;;;9.57;91.87;102376.53;10525889;28;20044;-74
2022/06/14 05:13:46;;;;;;;11.30;5.18;;;;;;;9.97;93.16;102386.38;10543779;28;20044;-74
2022/06/14 05:19:00;;;;;;;14.43;7.13;;;;;;;10.18;90.54;102377.97;10525266;28;20073;-74
2022/06/14 05:24:06;;;;;;;14.25;6.70;;;;;;;10.50;91.07;102383.88;10544190;28;20479;-74
2022/06/14 05:29:17;;;;;;;12.50;7.18;;;;;;;10.64;90.61;102387.16;10532140;28;20045;-74
2022/06/14 05:34:28;;;;;;;14.40;6.40;;;;;;;10.86;90.45;102380.47;10543008;28;20035;-74
2022/06/14 05:39:32;;;;;;;15.63;5.60;;;;;;;10.99;88.86;102385.41;10525066;28;20052;-74
2022/06/14 05:44:42;;;;;;;11.23;6.40;;;;;;;11.24;90.02;102391.75;10546371;28;20073;-74
2022/06/14 05:49:49;;;;;;;12.20;5.93;;;;;;;11.42;87.84;102386.53;10521519;28;20047;-74
2022/06/14 05:55:00;;;;;;;13.35;5.45;;;;;;;11.69;86.42;102393.81;10542876;28;20399;-74
2022/06/14 06:00:16;;;;;;;14.90;5.43;;;;;;;11.96;87.27;102396.72;10524115;28;20048;-74
2022/06/14 06:05:28;;;;;;;11.60;4.82;;;;;;;12.12;86.12;102393.16;10552977;28;20127;-74
2022/06/14 06:10:34;;;;;;;12.40;5.78;;;;;;;12.45;84.50;102386.78;10541637;28;20048;-73
2022/06/14 06:15:45;;;;;;;12.02;5.05;;;;;;;12.65;84.70;102395.38;10526393;28;20052;-74
2022/06/14 06:21:09;;;;;;;14.90;5.30;;;;;;;13.03;84.46;102398.59;10519344;28;20142;-74
2022/06/14 06:26:13;;;;;;;13.15;5.60;;;;;;;13.13;83.16;102394.69;10523462;28;20048;-74
2022/06/14 06:31:22;;;;;;;16.70;5.00;;;;;;;13.25;80.97;102392.56;10516713;28;20044;-73
2022/06/14 06:36:38;;;;;;;12.32;4.53;;;;;;;13.45;80.14;102392.47;10518488;28;20045;-73
2022/06/14 06:41:50;;;;;;;10.82;2.90;;;;;;;13.79;74.89;102398.94;10532508;28;20446;-74
2022/06/14 06:47:07;;;;;;;11.57;2.30;;;;;;;14.06;72.43;102398.13;10506390;28;21864;-74
2022/06/14 06:52:11;;;;;;;13.57;2.05;;;;;;;14.38;68.31;102395.78;10523998;28;20043;-73
2022/06/14 06:57:18;;;;;;;5.35;1.77;;;;;;;14.88;65.41;102401.78;10540936;28;20047;-73
2022/06/14 07:02:37;;;;;;;6.15;1.38;;;;;;;15.45;62.34;102399.19;10526454;28;20406;-74
2022/06/14 07:07:54;;;;;;;5.18;1.48;;;;;;;15.58;60.77;102403.03;10536695;28;20048;-73
2022/06/14 07:13:27;;;;;;;7.60;1.75;;;;;;;16.57;60.63;102400.53;10520598;28;20040;-74
2022/06/14 07:19:04;;;;;;;8.55;2.47;;;;;;;16.43;59.35;102395.84;10536607;28;20040;-73
2022/06/14 07:24:22;;;;;;;6.28;1.45;;;;;;;16.62;56.72;102398.94;10535892;28;20074;-73
2022/06/14 07:30:19;;;;;;;6.75;1.52;;;;;;;17.19;56.14;102400.31;10549509;28;20051;-73
2022/06/14 07:35:29;;;;;;;6.40;1.65;;;;;;;17.53;56.73;102393.19;10519964;28;20123;-74
2022/06/14 07:41:08;;;;;;;11.63;1.90;;;;;;;17.79;55.11;102394.56;10507176;28;20089;-73
2022/06/14 07:46:16;;;;;;;5.90;1.48;;;;;;;16.71;55.05;102404.38;10521824;28;20055;-73
2022/06/14 07:51:33;;;;;;;6.53;1.42;;;;;;;17.04;54.96;102395.59;10534914;28;20479;-73
2022/06/14 07:56:41;;;;;;;6.82;1.60;;;;;;;16.48;56.95;102391.66;10539090;28;20487;-74
2022/06/14 08:01:56;;;;;;;5.35;1.20;;;;;;;16.98;55.21;102386.78;10534975;28;20052;-74
2022/06/14 08:07:09;;;;;;;8.80;1.60;;;;;;;16.24;55.73;102393.63;10517514;28;20047;-74
2022/06/14 08:12:49;;;;;;;10.88;1.73;;;;;;;18.41;51.96;102390.53;10525916;28;20047;-73
2022/06/14 08:18:01;;;;;;;6.37;1.57;;;;;;;18.97;50.75;102377.50;10496402;28;20055;-73
2022/06/14 08:23:10;;;;;;;8.50;1.80;;;;;;;19.53;53.16;102372.13;10534353;28;20040;-74
2022/06/14 08:28:25;;;;;;;6.67;1.67;;;;;;;19.13;48.23;102382.97;10519593;28;20090;-75
2022/06/14 08:33:41;;;;;;;5.80;1.75;;;;;;;18.13;52.17;102377.00;10521481;28;20101;-74
2022/06/14 08:38:52;;;;;;;4.18;1.55;;;;;;;17.79;52.23;102376.31;10517763;28;20056;-74
2022/06/14 08:44:52;;;;;;;9.45;1.95;;;;;;;17.47;55.13;102371.34;10526909;28;20483;-74
2022/06/14 08:50:08;;;;;;;6.18;2.00;;;;;;;17.90;55.55;102367.00;10547189;28;20047;-74
2022/06/14 08:55:22;;;;;;;14.98;1.90;;;;;;;18.08;52.65;102369.97;10537505;28;20086;-74
2022/06/14 09:01:04;;;;;;;11.27;2.45;;;;;;;19.28;50.35;102362.25;10524084;28;20388;-73
2022/06/14 09:06:51;;;;;;;8.02;1.75;;;;;;;19.79;47.82;102360.25;10539840;28;20046;-73
2022/06/14 09:12:03;;;;;;;14.38;2.13;;;;;;;19.44;48.09;102359.84;10489487;28;20047;-74
2022/06/14 09:17:37;;;;;;;10.43;2.00;;;;;;;19.84;48.01;102357.72;10525649;28;20575;-73
2022/06/14 09:23:07;;;;;;;3.97;1.45;;;;;;;18.47;51.10;102364.53;10497218;28;20044;-74
2022/06/14 09:28:54;;;;;;;7.93;1.80;;;;;;;18.10;50.38;102366.50;10540013;28;20056;-74
2022/06/14 09:33:59;;;;;;;6.78;1.50;;;;;;;17.72;50.60;102368.38;10559248;28;20047;-74
2022/06/14 09:39:25;;;;;;;6.93;2.33;;;;;;;19.46;47.57;102361.63;10546371;28;20051;-74
2022/06/14 09:45:06;;;;;;;7.28;1.80;;;;;;;20.55;47.30;102367.97;10516242;28;20491;-74
2022/06/14 09:56:19;;;;;;;2.95;1.10;;;;;;;19.50;41.06;102352.06;10533766;28;20371;-74
2022/06/14 10:02:21;;;;;;;6.38;1.40;;;;;;;21.02;44.32;102342.97;10535866;28;20457;-74
2022/06/14 10:08:08;;;;;;;2.53;1.20;;;;;;;20.73;45.42;102336.69;10523831;28;20036;-74
2022/06/14 10:13:41;;;;;;;8.95;1.83;;;;;;;19.93;46.10;102349.94;10490552;28;20056;-75
2022/06/14 10:19:18;;;;;;;4.47;1.40;;;;;;;20.63;43.09;102352.28;10540861;28;20048;-74
2022/06/14 10:24:35;;;;;;;5.05;1.48;;;;;;;20.71;42.91;102337.50;10529738;28;20062;-74
2022/06/14 10:29:50;;;;;;;4.70;1.20;;;;;;;20.34;44.46;102342.47;10518826;28;20051;-74
2022/06/14 10:41:53;;;;;;;3.63;1.35;;;;;;;20.43;47.23;102321.63;10531086;28;20040;-74
2022/06/14 10:47:10;;;;;;;11.35;1.73;;;;;;;20.46;44.37;102313.75;10514418;28;20109;-74
2022/06/14 10:52:39;;;;;;;6.88;1.60;;;;;;;21.23;44.47;102311.63;10537803;28;20044;-74
2022/06/14 10:58:18;;;;;;;6.50;1.83;;;;;;;20.76;47.33;102299.16;10507248;28;20043;-74
2022/06/14 11:03:54;;;;;;;8.80;1.77;;;;;;;20.78;44.40;102292.19;10510669;28;20392;-74
2022/06/14 11:09:01;;;;;;;7.07;1.92;;;;;;;21.20;41.94;102288.00;10509893;28;20051;-74
2022/06/14 11:14:08;;;;;;;3.63;1.52;;;;;;;21.29;41.57;102288.91;10521704;28;20051;-74
2022/06/14 11:19:42;;;;;;;6.75;1.50;;;;;;;20.33;43.73;102285.75;10535462;28;20036;-74
2022/06/14 11:24:57;;;;;;;4.88;1.45;;;;;;;20.86;41.26;102279.13;10537427;28;20044;-75
2022/06/14 11:30:11;;;;;;;4.25;1.50;;;;;;;19.93;45.41;102276.72;10538779;28;20063;-74
2022/06/14 11:35:31;;;;;;;4.75;1.75;;;;;;;21.08;44.54;102269.63;10517469;28;20048;-74
2022/06/14 11:40:41;;;;;;;5.28;1.63;;;;;;;20.68;43.66;102258.91;10528198;28;20039;-74
2022/06/14 11:46:05;;;;;;;6.20;2.47;;;;;;;21.04;41.51;102259.97;10494656;28;20055;-74
2022/06/14 11:51:33;;;;;;;4.95;1.67;;;;;;;21.34;42.33;102253.09;10531965;28;20211;-74
2022/06/14 11:56:48;;;;;;;4.22;1.60;;;;;;;21.19;44.13;102246.06;10521747;28;20496;-74
2022/06/14 12:01:59;;;;;;;5.80;2.00;;;;;;;21.62;40.91;102242.72;10536594;28;20040;-74
2022/06/14 12:07:16;;;;;;;4.60;1.60;;;;;;;21.59;42.71;102250.56;10536526;28;20036;-74
2022/06/14 12:12:53;;;;;;;7.20;1.52;;;;;;;21.78;46.00;102236.56;10530789;28;20927;-74
2022/06/14 12:18:01;;;;;;;8.45;1.95;;;;;;;21.88;41.99;102226.97;10509410;28;20052;-75
2022/06/14 12:23:14;;;;;;;9.57;1.77;;;;;;;20.71;44.75;102222.28;10529812;28;20052;-75
2022/06/14 12:28:46;;;;;;;4.60;1.52;;;;;;;21.84;41.65;102225.22;10508189;28;20048;-75
2022/06/14 12:34:50;;;;;;;5.40;1.63;;;;;;;21.50;43.92;102210.31;10507334;28;20036;-76
2022/06/14 12:39:58;;;;;;;3.45;1.80;;;;;;;21.24;41.25;102208.53;10528412;28;20044;-74
2022/06/14 12:45:29;;;;;;;7.18;1.70;;;;;;;21.85;41.28;102206.88;10549409;28;20044;-74
2022/06/14 12:50:37;;;;;;;9.82;1.75;;;;;;;21.62;40.18;102206.00;10539930;28;20044;-74
2022/06/14 12:55:47;;;;;;;3.38;1.48;;;;;;;21.78;40.41;102188.50;10517602;28;20041;-74
2022/06/14 13:00:59;;;;;;;7.47;1.33;;;;;;;21.61;40.14;102191.13;10516572;28;20094;-75
2022/06/14 13:06:10;;;;;;;3.90;1.42;;;;;;;21.36;40.70;102185.81;10525118;28;20050;-75
2022/06/14 13:11:26;;;;;;;3.35;1.40;;;;;;;21.70;43.96;102171.00;10524628;28;20083;-75
2022/06/14 13:17:03;;;;;;;5.97;1.65;;;;;;;21.01;41.20;102181.41;10531441;28;20499;-76
2022/06/14 13:22:20;;;;;;;10.30;1.80;;;;;;;21.95;40.77;102170.09;10538619;28;20439;-75
2022/06/14 13:27:36;;;;;;;4.85;1.40;;;;;;;21.41;40.97;102168.34;10540873;28;20086;-75
2022/06/14 13:32:51;;;;;;;6.72;1.77;;;;;;;21.64;41.36;102164.88;10537289;28;20044;-75
2022/06/14 13:38:06;;;;;;;5.55;1.50;;;;;;;21.65;41.49;102154.41;10538530;28;20097;-75
2022/06/14 13:43:22;;;;;;;3.85;1.42;;;;;;;21.96;40.06;102150.88;10541748;28;20085;-75
2022/06/14 13:48:32;;;;;;;4.43;1.45;;;;;;;20.83;41.32;102151.66;10523580;28;20047;-75
2022/06/14 13:54:05;;;;;;;5.82;1.48;;;;;;;21.28;40.80;102151.75;10541700;28;20079;-75
2022/06/14 13:59:21;;;;;;;8.07;1.88;;;;;;;20.87;41.51;102148.19;10549882;28;20059;-75
2022/06/14 14:04:48;;;;;;;5.68;1.48;;;;;;;21.58;41.63;102142.19;10517023;28;20479;-75
2022/06/14 14:09:49;;;;;;;3.45;1.20;;;;;;;21.23;40.19;102146.50;10492856;28;20097;-75
2022/06/14 14:15:20;;;;;;;8.05;1.98;;;;;;;20.85;40.92;102136.81;10529948;28;20040;-75
2022/06/14 14:21:03;;;;;;;4.97;1.70;;;;;;;20.82;39.97;102136.78;10544143;28;20040;-75
2022/06/14 14:26:04;;;;;;;5.60;1.30;;;;;;;20.85;40.52;102126.34;10521137;28;20090;-75
2022/06/14 14:31:23;;;;;;;4.40;1.52;;;;;;;21.20;42.40;102117.66;10514619;28;20048;-76
2022/06/14 14:36:24;;;;;;;4.97;1.60;;;;;;;20.86;41.60;102106.25;10506486;28;20130;-75
2022/06/14 14:41:42;;;;;;;3.00;1.30;;;;;;;21.09;43.09;102103.69;10516790;28;20044;-75
2022/06/14 14:47:23;;;;;;;4.72;1.40;;;;;;;21.37;41.50;102103.69;10502992;28;20553;-75
2022/06/14 14:52:38;;;;;;;2.88;1.40;;;;;;;21.24;41.47;102102.81;10486094;28;20133;-75
2022/06/14 14:57:50;;;;;;;5.97;1.42;;;;;;;21.26;40.00;102101.06;10534510;28;20054;-76
2022/06/14 15:08:54;;;;;;;6.25;1.55;;;;;;;21.17;41.14;102083.59;10538089;28;20117;-75
2022/06/14 15:13:58;;;;;;;4.90;1.70;;;;;;;21.12;43.90;102072.22;10535393;28;20050;-75
2022/06/14 15:24:48;;;;;;;4.30;1.60;;;;;;;20.98;39.88;102064.38;10522727;28;20044;-76
2022/06/14 15:29:53;;;;;;;5.03;1.70;;;;;;;21.00;42.35;102059.13;10500733;28;20047;-75
2022/06/14 15:35:00;;;;;;;5.57;1.75;;;;;;;21.18;42.12;102051.28;10536821;28;20414;-76
2022/06/14 15:40:14;;;;;;;2.80;1.27;;;;;;;20.99;40.73;102045.16;10534213;28;20046;-75
2022/06/14 15:45:30;;;;;;;4.03;1.65;;;;;;;21.54;39.76;102038.13;10538605;28;20052;-75
2022/06/14 15:50:40;;;;;;;5.38;1.80;;;;;;;21.42;41.31;102028.53;10517984;28;20043;-75
2022/06/14 15:55:48;;;;;;;7.10;1.55;;;;;;;21.35;40.43;102018.94;10506788;28;20036;-75
2022/06/14 16:01:05;;;;;;;4.18;1.77;;;;;;;21.57;39.65;102009.31;10500921;28;20047;-75
2022/06/14 16:06:11;;;;;;;5.72;1.80;;;;;;;21.18;40.37;102006.75;10535151;28;20071;-75
2022/06/14 16:11:15;;;;;;;5.95;1.63;;;;;;;21.14;43.14;101997.13;10525103;28;20044;-75
2022/06/14 16:16:37;;;;;;;6.40;1.70;;;;;;;21.38;41.42;101992.72;10516052;28;20538;-75
2022/06/14 16:21:46;;;;;;;4.55;1.67;;;;;;;21.55;40.51;101988.31;10533592;28;20052;-75
2022/06/14 16:27:25;;;;;;;7.60;2.10;;;;;;;20.80;41.38;101981.41;10537664;28;20093;-75
2022/06/14 16:32:39;;;;;;;6.63;1.98;;;;;;;21.04;41.97;101980.53;10530703;28;20056;-75
2022/06/14 16:37:52;;;;;;;8.80;1.75;;;;;;;21.58;42.18;101971.75;10523157;28;20040;-75
2022/06/14 16:43:06;;;;;;;3.90;1.40;;;;;;;21.38;41.84;101974.38;10514277;28;20502;-75
2022/06/14 16:48:23;;;;;;;4.85;2.00;;;;;;;21.07;40.45;101979.66;10533726;28;20498;-75
2022/06/14 16:53:44;;;;;;;5.38;1.77;;;;;;;21.30;43.47;101976.13;10523145;28;20040;-75
2022/06/14 16:58:53;;;;;;;3.53;1.40;;;;;;;21.19;41.89;101969.16;10516303;28;20071;-75
2022/06/14 17:04:11;;;;;;;5.57;1.55;;;;;;;21.13;41.29;101977.03;10520696;28;20081;-76
2022/06/14 17:09:29;;;;;;;4.70;1.63;;;;;;;21.63;40.80;101974.34;10535627;28;20252;-75
2022/06/14 17:15:06;;;;;;;4.10;1.30;;;;;;;21.73;42.18;101969.94;10527102;28;20040;-75
2022/06/14 17:20:30;;;;;;;4.88;1.55;;;;;;;21.01;41.84;101961.34;10537172;28;20055;-74
2022/06/14 17:31:14;;;;;;;9.15;1.90;;;;;;;21.27;43.23;101957.78;10539143;28;20051;-75
2022/06/14 17:36:46;;;;;;;4.20;1.40;;;;;;;21.46;42.13;101956.88;10527572;28;20867;-75
2022/06/14 17:41:53;;;;;;;4.30;1.33;;;;;;;21.07;41.83;101956.09;10519645;28;20458;-75
2022/06/14 17:46:56;;;;;;;6.72;1.70;;;;;;;21.29;42.23;101951.69;10529278;28;20044;-75
2022/06/14 17:52:19;;;;;;;4.97;1.13;;;;;;;21.09;43.59;101949.09;10514057;28;20040;-76
2022/06/14 17:57:30;;;;;;;5.70;1.30;;;;;;;20.83;44.38;101942.13;10527031;28;20032;-75
2022/06/14 18:03:00;;;;;;;5.18;1.40;;;;;;;20.72;43.50;101941.22;10525162;28;20063;-74
2022/06/14 18:08:22;;;;;;;5.03;1.30;;;;;;;20.76;44.68;101936.03;10532213;28;20044;-74
2022/06/14 18:13:29;;;;;;;5.47;1.30;;;;;;;20.50;44.88;101941.22;10516970;28;20039;-74
2022/06/14 18:18:50;;;;;;;4.05;1.85;;;;;;;20.37;44.11;101942.06;10536629;28;20048;-74
2022/06/14 18:23:59;;;;;;;7.72;1.98;;;;;;;20.42;44.29;101953.41;10529906;28;20052;-74
2022/06/14 18:29:26;;;;;;;6.10;1.42;;;;;;;20.20;45.66;101950.75;10528469;28;20040;-75
2022/06/14 18:34:48;;;;;;;3.15;1.25;;;;;;;20.01;47.02;101941.09;10513799;28;20051;-74
2022/06/14 18:39:55;;;;;;;5.20;1.30;;;;;;;19.75;46.92;101944.47;10486766;28;20044;-74
2022/06/14 18:45:11;;;;;;;5.82;1.60;;;;;;;19.82;47.89;101935.78;10500813;28;20102;-74
2022/06/14 18:50:22;;;;;;;5.93;1.40;;;;;;;19.73;47.48;101931.38;10532847;28;20044;-73
2022/06/14 18:55:37;;;;;;;4.43;1.20;;;;;;;19.63;48.19;101933.06;10526628;28;20042;-73
2022/06/14 19:01:04;;;;;;;7.90;1.67;;;;;;;19.42;48.96;101925.13;10523832;28;20045;-74
2022/06/14 19:06:14;;;;;;;4.40;1.50;;;;;;;19.42;48.57;101930.34;10521540;28;20045;-74
2022/06/14 19:11:37;;;;;;;3.50;1.35;;;;;;;19.36;50.31;101935.56;10532144;28;20044;-73
2022/06/14 19:16:54;;;;;;;4.32;1.60;;;;;;;19.02;50.59;101931.84;10537368;28;20039;-74
2022/06/14 19:22:23;;;;;;;4.93;1.50;;;;;;;18.94;51.58;101933.56;10533621;28;20080;-74
2022/06/14 19:28:02;;;;;;;4.53;1.70;;;;;;;18.56;53.79;101941.91;10542481;28;20040;-74
2022/06/14 19:33:13;;;;;;;7.63;1.52;;;;;;;18.15;53.84;101940.63;10516692;28;20043;-74
2022/06/14 19:38:16;;;;;;;9.40;1.70;;;;;;;18.07;54.06;101948.34;10536611;28;20052;-73
2022/06/14 19:43:36;;;;;;;5.72;1.73;;;;;;;17.67;55.20;101945.25;10530406;28;20048;-74
2022/06/14 19:54:10;;;;;;;4.13;1.40;;;;;;;17.36;54.92;101957.84;10537785;28;20065;-74
2022/06/14 19:59:20;;;;;;;3.90;1.60;;;;;;;17.16;55.31;101959.28;10534202;28;20051;-73
2022/06/14 20:04:28;;;;;;;3.58;1.73;;;;;;;17.01;55.17;101960.78;10517859;28;20052;-74
2022/06/14 20:09:38;;;;;;;3.83;1.42;;;;;;;16.92;55.77;101958.00;10535092;28;20075;-73
2022/06/14 20:14:42;;;;;;;4.13;1.50;;;;;;;16.87;55.55;101967.44;10529379;28;20044;-74
2022/06/14 20:20:02;;;;;;;4.93;1.83;;;;;;;16.67;56.31;101970.56;10527483;28;20051;-73
2022/06/14 20:25:15;;;;;;;3.28;1.60;;;;;;;16.42;57.34;101977.91;10531275;28;20039;-74
2022/06/14 20:30:20;;;;;;;4.85;2.00;;;;;;;16.35;56.92;101978.66;10531577;28;20043;-74
2022/06/14 20:35:38;;;;;;;4.75;1.75;;;;;;;16.18;58.41;101981.81;10536260;28;20127;-74
2022/06/14 20:40:51;;;;;;;3.22;1.83;;;;;;;15.97;59.06;101986.59;10516875;28;20501;-74
2022/06/14 20:45:54;;;;;;;6.05;1.70;;;;;;;15.90;59.33;101984.72;10516225;28;20044;-74
2022/06/14 20:51:04;;;;;;;2.83;1.60;;;;;;;15.88;59.64;101988.97;10490290;28;20043;-73
2022/06/14 20:56:07;;;;;;;;;;;;;;;15.75;59.19;101975.66;10506487;28;20062;-73
2022/06/14 21:01:14;;;;;;;4.15;1.83;;;;;;;15.67;59.78;101975.53;10508896;28;19923;-73
2022/06/14 21:06:18;;;;;;;6.00;1.73;;;;;;;15.61;60.23;101977.09;10537574;28;20093;-73
2022/06/14 21:11:45;;;;;;;7.85;1.70;;;;;;;15.64;59.88;101972.84;10548058;28;20040;-73
2022/06/14 21:16:59;;;;;;;3.05;1.67;;;;;;;15.48;59.54;101965.56;10530551;28;20042;-73
2022/06/14 21:22:01;;;;;;;2.85;1.67;;;;;;;15.35;61.19;101974.78;10502361;28;20130;-73
2022/06/14 21:27:10;;;;;;;4.47;1.92;;;;;;;15.10;61.18;101969.00;10535942;28;20039;-73
2022/06/14 21:32:12;;;;;;;2.97;1.40;;;;;;;15.12;61.47;101956.06;10527374;28;20048;-73
2022/06/14 21:37:25;;;;;;;3.38;1.48;;;;;;;15.11;62.51;101955.19;10543052;28;20286;-73
2022/06/14 21:42:29;;;;;;;2.28;1.60;;;;;;;14.54;65.38;101957.22;10524617;28;20046;-73
2022/06/14 21:47:33;;;;;;;4.70;1.90;;;;;;;14.22;66.57;101970.19;10545232;28;20036;-74
2022/06/14 21:52:38;;;;;;;6.65;1.83;;;;;;;14.40;65.28;101972.41;10542290;28;20040;-73
2022/06/14 21:58:01;;;;;;;6.82;1.77;;;;;;;14.25;66.34;101972.88;10523678;28;20044;-73
2022/06/14 22:03:30;;;;;;;4.00;1.83;;;;;;;14.27;65.14;101968.59;10540710;28;20101;-73
2022/06/14 22:08:31;;;;;;;6.40;2.00;;;;;;;14.42;64.76;101972.44;10538163;28;20406;-73
2022/06/14 22:13:40;;;;;;;7.53;2.13;;;;;;;14.01;66.87;101972.16;10541621;28;20048;-74
2022/06/14 22:18:45;;;;;;;5.40;2.00;;;;;;;14.00;67.33;101973.84;10546084;28;20040;-73
2022/06/14 22:29:10;;;;;;;5.55;1.95;;;;;;;13.69;67.99;101972.97;10543637;28;20043;-73
2022/06/14 22:34:20;;;;;;;5.40;2.10;;;;;;;14.09;66.12;101968.09;10525893;28;20044;-73
2022/06/14 22:39:23;;;;;;;;;;;;;;;14.15;65.55;101968.25;10522006;28;20542;-73
2022/06/14 22:44:25;;;;;;;5.38;2.35;;;;;;;13.65;67.88;101958.16;10536478;28;20136;-73
2022/06/14 22:49:27;;;;;;;5.28;2.40;;;;;;;14.00;65.78;101957.44;10536650;28;20152;-73
2022/06/14 22:54:33;;;;;;;7.40;2.50;;;;;;;13.74;67.62;101960.13;10538818;28;20048;-73
2022/06/14 22:59:34;;;;;;;5.05;2.72;;;;;;;13.77;67.95;101960.25;10535775;28;20033;-73
2022/06/14 23:04:36;;;;;;;3.90;2.72;;;;;;;13.67;69.27;101950.44;10520779;28;20536;-73
2022/06/14 23:09:38;;;;;;;6.80;2.67;;;;;;;13.60;68.75;101950.25;10520616;28;20578;-73
2022/06/14 23:14:40;;;;;;;6.43;2.80;;;;;;;13.74;67.92;101950.69;10531075;28;20557;-74
2022/06/14 23:19:41;;;;;;;19.05;3.03;;;;;;;13.74;67.94;101949.78;10544211;28;20044;-73
2022/06/14 23:24:43;;;;;;;6.20;2.83;;;;;;;13.47;70.40;101956.78;10504385;28;20094;-73
2022/06/14 23:29:44;;;;;;;6.75;2.95;;;;;;;13.07;72.02;101949.44;10536975;28;20055;-73
2022/06/14 23:34:46;;;;;;;9.40;3.10;;;;;;;13.38;70.22;101945.22;10554921;28;20039;-73
2022/06/14 23:39:48;;;;;;;7.38;2.90;;;;;;;13.23;72.09;101946.50;10530470;28;20135;-74
2022/06/14 23:44:50;;;;;;;7.78;3.08;;;;;;;13.00;72.71;101948.34;10537654;28;20445;-73
2022/06/14 23:49:53;;;;;;;5.47;3.05;;;;;;;12.62;74.14;101956.56;10537982;28;20040;-73
2022/06/14 23:54:54;;;;;;;7.75;3.13;;;;;;;12.75;73.82;101941.50;10537840;28;20043;-74
2022/06/14 23:59:56;;;;;;;6.15;3.17;;;;;;;13.22;70.30;101941.28;10536300;28;20093;-74
